Terminal Aerodrome Forecast
Issued by NWS

Home | Current Version | Previous Version | Text Only | Print | Product List | Glossary On
Versions: 1 2 3 4 5 6 7 8 9 10 11 12 13 14 15
000
FTUS43 KGLD 210525
TAFMCK
TAF
KMCK 210525Z 2106/2206 18019G27KT P6SM SCT250
     FM210800 21013KT P6SM SCT200 WS020/20035KT
     FM211000 28014KT P6SM SCT250 WS020/32040KT
     FM211400 32020G35KT P6SM BKN150
     FM220000 31006KT P6SM FEW250=

USA.gov is the U.S. government's official web portal to all federal, state and local government web resources and services.